Meteo Giornale » Osservazioni meteo Italia » Roma-Ciampino

ore: 16:20 - Osservazioni Meteo Roma-Ciampino
Lat. 41° 47' N Lon. 12° 35' E Alt. 129 metri s.l.m.

molto_nuvoloso Europe/Rome

20 °C

Molto Nuvoloso

Temp. 24 Ore

16 °C

25 °C

Est/Nord-Est

13 Km/h

Dew point 16 °C

Umidità 77 %

Visibilità  10 Km

Il sole sorge alle ore 06:55

Il sole tramonta alle ore 19:08

Data e Ora Cielo e Fenomeni T °C DP °C Um. % Pres. hPa Vis. km Vento km/h
Oggi h: 16:20 molto_nuvoloso Molto Nuvoloso 20 16 77 1016 10 E/NE 13
Oggi h: 15:50 nuvoloso Nuvoloso 19 16 82 1016 10 E 22.2
Oggi h: 15:20 coperto_pioggia Pioggia Debole 19 17 88 1017 9 N 13
Oggi h: 14:50 coperto_pioggia Pioggia Debole 20 18 88 1018 5 NO 16.7
Oggi h: 14:20 nuvoloso Nuvoloso 21 17 77 1017 10 O/NO 13
Oggi h: 13:50 nuvoloso Nuvoloso 21 18 82 1017 10 O/NO 7.4
Oggi h: 13:20 nuvoloso Nuvoloso 21 17 77 1017 10 N 3.7
Oggi h: 12:50 nuvoloso Nuvoloso 19 17 88 1017 10 NO 11.1
Oggi h: 12:20 coperto_pioggia Pioggia Debole 19 17 88 1018 10 N/NE 9.3
Oggi h: 11:50 coperto_pioggia Pioggia Debole 20 17 82 1018 8 E 11.1
Oggi h: 11:20 coperto_pioggia Pioggia Debole 20 16 77 1018 8 S/SE 14.8
Oggi h: 10:50 molto_nuvoloso Molto Nuvoloso 19 16 82 1017 10 N 3.7
Oggi h: 10:20 nuvoloso_temporali Temporale nelle Vicinanze 18 16 88 1018 8 O/SO 9.3
Oggi h: 09:50 coperto_pioggia Pioggia Debole 19 15 77 1017 10 N 14.8
Oggi h: 09:20 nuvoloso_temporali Temporale con Pioggia 18 15 82 1017 6 E 14.8
Oggi h: 08:50 nuvoloso_temporali Temporale con Pioggia 17 16 93 1019 6 E 16.7
Oggi h: 08:20 nuvoloso_temporali Temporale con Pioggia Foschia 17 16 93 1020 4 N 5.5
Oggi h: 07:50 nuvoloso_temporali Temporale con Pioggia Debole 17 15 88 1019 6 N 5.5
Oggi h: 07:20 nuvoloso_temporali Temporale con Pioggia Foschia 17 15 88 1020 4 S 9.3
Oggi h: 06:50 coperto_pioggia Pioggia Temporale nelle Vicinanze 16 14 87 1019 5 E 16.7
Oggi h: 05:50 coperto_pioggia Pioggia 19 13 68 1020 10 N 37
Oggi h: 05:20 sereno Sereno 21 13 60 1019 10 N/NO 18.5
Oggi h: 04:50 sereno Sereno 23 9 40 1018 10 N 3.7
Oggi h: 03:50 sereno Sereno 23 8 38 1018 10 S/SE 14.8
Oggi h: 03:20 sereno Sereno 22 8 40 1019 10 S/SE 7.4
Oggi h: 02:50 sereno Sereno 21 8 43 1019 10 N 3.7
Oggi h: 02:20 sereno Sereno 20 10 52 1019 10 N 3.7
Oggi h: 01:50 sereno Sereno 20 14 68 1020 10 N 3.7
Oggi h: 01:20 sereno Sereno 19 15 77 1020 10 N 3.7
Oggi h: 00:50 sereno Sereno 18 15 82 1020 10 E 7.4
Oggi h: 00:20 sereno Sereno 18 14 77 1020 10 N 3.7
Ieri h: 23:50 sereno Sereno 18 15 82 1020 10 N 3.7
Ieri h: 23:20 sereno Sereno 18 15 82 1020 10 N 3.7
Ieri h: 22:50 sereno Sereno 19 15 77 1020 10 N 3.7
Ieri h: 22:20 sereno Sereno 20 15 72 1020 10 N 5.5
Ieri h: 21:50 sereno Sereno 20 15 72 1020 10 N 5.5
Ieri h: 21:20 sereno Sereno 20 15 72 1020 10 E 7.4
Ieri h: 20:50 sereno Sereno 21 15 68 1020 10 S/SE 7.4
Ieri h: 20:20 sereno Sereno 21 15 68 1021 10 S/SE 7.4
Ieri h: 19:50 sereno Sereno 21 15 68 1021 10 S/SO 7.4
Ieri h: 19:20 sereno Sereno 22 15 64 1021 10 S/SO 9.3
Ieri h: 18:50 sereno Sereno 23 15 60 1021 10 S/SO 9.3
Ieri h: 17:50 sereno Sereno 25 15 53 1020 10 N 5.5
Ieri h: 17:20 sereno Sereno 24 16 60 1020 10 SO 7.4
Ieri h: 16:50 sereno Sereno 24 15 57 1021 10 N 3.7